Overview Statistics Trail Chart Weather Telemetry Raw packets
 

This is the latest recevied weather packets stored in our database for station/object DG4CB-13. If no packets are shown the sender has not sent any weather packets the latest 10 day(s).

<< 14 15 16 17 18 19 20 >>
Time Temp. Humidity Pressure Rain* Wind** Luminosity Snow
1788180599 22.78° C 49% 1011.8 hPa - - - -
1788179999 22.22° C 55% 1011.8 hPa - - - -
1788179403 21.67° C 56% 1012.1 hPa - - - -
1788178799 22.22° C 54% 1012 hPa - - - -
1788178200 22.22° C 53% 1011.8 hPa - - - -
1788177599 22.22° C 52% 1011.9 hPa - - - -
1788176999 22.22° C 54% 1011.8 hPa - - - -
1788176399 21.67° C 55% 1012 hPa - - - -
1788175799 21.67° C 55% 1012 hPa - - - -
1788175199 21.67° C 56% 1012 hPa - - - -
1788174599 21.67° C 57% 1012.2 hPa - - - -
1788174000 21.11° C 59% 1012.2 hPa - - - -
1788146400 16.11° C 93% 1011.2 hPa - - - -
1788145800 16.11° C 93% 1011.1 hPa - - - -
1788145200 16.11° C 92% 1011.1 hPa - - - -
1788144600 16.11° C 92% 1011 hPa - - - -
1788144000 16.11° C 91% 1011.2 hPa - - - -
1788143400 16.11° C 91% 1011.2 hPa - - - -
1788142800 16.11° C 90% 1011.3 hPa - - - -
1788142200 16.11° C 89% 1011.6 hPa - - - -
1788132601 16.67° C 74% 1011.4 hPa - - - -
1788132000 16.67° C 74% 1011.5 hPa - - - -
1788131400 16.67° C 73% 1011.5 hPa - - - -
1788130800 16.67° C 73% 1011.5 hPa - - - -
1788130200 17.22° C 73% 1011.7 hPa - - - -

* Rain since midnight (hover to see other rain measurements)
** Current wind speed in m/s (hover to see current wind gust speed)